Cape Providence — 3EWQ — position and weather

sailwx.info

Track history (hours):
 
Tides and Currents Weather Stations Pressure Air Temp Water Temp Dewpoint Dewpoint Depression Visibility Wind Speed Wind Dir Waves Ship Positions

Cape Providence

Last reported at 2014-Aug-21 19:32 UTC. Time now 2014-Aug-21 20:01 UTC.
Position N 44°35' E 037°55'.

Length 292 m; draft 18.3 m.

Type: Cargo ship. MMSI: 372773000.

Date/timePositionNaut miles runAvg speedWind from/ knotsBaromVisibWave heightAir tempDewpointWater temp
2014-Aug-21 19:32N 44°35' E 037°55'0 0.0
2014-Aug-21 18:32N 44°35' E 037°54'0 0.0
2014-Aug-21 17:32N 44°35' E 037°54'0 0.0
2014-Aug-21 16:32N 44°35' E 037°55'0 0.1
2014-Aug-21 15:32N 44°35' E 037°55'0 0.0
2014-Aug-21 14:32N 44°35' E 037°55'0 0.1
2014-Aug-21 13:32N 44°35' E 037°55'1 0.7
2014-Aug-21 12:33N 44°34' E 037°54'5 5.1
2014-Aug-21 11:34N 44°31' E 037°48'1211.8
2014-Aug-21 10:34N 44°26' E 037°33'1312.4
2014-Aug-21 09:30N 44°20' E 037°17'10511.7
2014-Aug-21 00:29N 44°15' E 034°50'1111.8
2014-Aug-20 23:33N 44°15' E 034°35'1412.2
2014-Aug-20 22:24N 44°15' E 034°15'4811.2
2014-Aug-20 18:07N 44°29' E 033°11'912.7
2014-Aug-20 17:23N 44°36' E 033°02'1112.9
2014-Aug-20 16:33N 44°44' E 032°52'13510.9
2014-Aug-20 04:14N 46°34' E 031°00'3 0.4
2014-Aug-19 21:03N 46°37' E 031°02'0 0.0
2014-Aug-18 23:24N 46°37' E 031°02'0 0.0
2014-Aug-18 22:24N 46°37' E 031°02'  
2014-Aug-15 05:31N 46°39' E 031°01'0 0.0
2014-Aug-15 04:31N 46°39' E 031°01'0 0.0
2014-Aug-15 03:31N 46°39' E 031°01'0 0.0
2014-Aug-15 02:10N 46°39' E 031°01'0 0.0
2014-Aug-15 01:31N 46°39' E 031°01'0 0.0
2014-Aug-15 00:31N 46°39' E 031°01'0 0.0
2014-Aug-14 23:31N 46°39' E 031°01'1 1.0
2014-Aug-14 22:34N 46°38' E 031°01'4 4.3
2014-Aug-14 21:34N 46°34' E 031°03'2 2.2
2014-Aug-14 20:30N 46°34' E 031°06'0 0.0
2014-Aug-14 19:33N 46°34' E 031°06'0 0.0
2014-Aug-14 18:33N 46°34' E 031°06'0 0.0
2014-Aug-13 17:33N 46°34' E 031°06'0 0.0
2014-Aug-13 16:33N 46°34' E 031°06'0 0.0
2014-Aug-13 15:33N 46°34' E 031°06'0 0.0
2014-Aug-13 13:30N 46°34' E 031°06'0 0.0
2014-Aug-13 05:15N 46°34' E 031°06'0 0.0
2014-Aug-13 04:33N 46°34' E 031°06'0 0.0
2014-Aug-13 03:33N 46°34' E 031°06'0 0.0
2014-Aug-13 02:33N 46°34' E 031°06'0 0.0
2014-Aug-13 01:33N 46°34' E 031°06'0 0.0
2014-Aug-13 00:33N 46°34' E 031°06'0 0.0
2014-Aug-12 23:33N 46°34' E 031°06'0 0.0
2014-Aug-12 22:33N 46°34' E 031°06'0 0.0
2014-Aug-12 21:33N 46°34' E 031°06'0 0.0
2014-Aug-12 20:33N 46°34' E 031°06'0 0.0
2014-Aug-12 19:33N 46°34' E 031°06'0 0.0
2014-Aug-12 18:33N 46°34' E 031°06'0 0.0
2014-Aug-12 17:33N 46°34' E 031°06'0 0.0
2014-Aug-12 16:33N 46°34' E 031°06'0 0.0
2014-Aug-12 15:30N 46°34' E 031°06'0 0.0
2014-Aug-12 05:24N 46°34' E 031°06'0 0.0
2014-Aug-12 04:33N 46°34' E 031°06'0 0.0
2014-Aug-12 02:06N 46°34' E 031°06'0 0.0
2014-Aug-12 01:30N 46°34' E 031°06'0 0.1
2014-Aug-11 21:31N 46°34' E 031°06'5 5.3
2014-Aug-11 20:33N 46°33' E 030°59'8 7.8
2014-Aug-11 19:33N 46°25' E 030°57'  
Track history (hours):
 
Tides and Currents Weather Stations Pressure Air Temp Water Temp Dewpoint Dewpoint Depression Visibility Wind Speed Wind Dir Waves Ship Positions

Cape Providence

Last reported at 2014-Aug-21 19:32 UTC. Time now 2014-Aug-21 20:01 UTC.
Position N 44°35' E 037°55'.

Length 292 m; draft 18.3 m.

Type: Cargo ship. MMSI: 372773000.

Date/timePositionNaut miles runAvg speedWind from/ knotsBaromVisibWave heightAir tempDewpointWater temp
2014-Aug-21 19:32N 44°35' E 037°55'0 0.0
2014-Aug-21 18:32N 44°35' E 037°54'0 0.0
2014-Aug-21 17:32N 44°35' E 037°54'0 0.0
2014-Aug-21 16:32N 44°35' E 037°55'0 0.1
2014-Aug-21 15:32N 44°35' E 037°55'0 0.0
2014-Aug-21 14:32N 44°35' E 037°55'0 0.1
2014-Aug-21 13:32N 44°35' E 037°55'1 0.7
2014-Aug-21 12:33N 44°34' E 037°54'5 5.1
2014-Aug-21 11:34N 44°31' E 037°48'1211.8
2014-Aug-21 10:34N 44°26' E 037°33'1312.4
2014-Aug-21 09:30N 44°20' E 037°17'10511.7
2014-Aug-21 00:29N 44°15' E 034°50'1111.8
2014-Aug-20 23:33N 44°15' E 034°35'1412.2
2014-Aug-20 22:24N 44°15' E 034°15'4811.2
2014-Aug-20 18:07N 44°29' E 033°11'912.7
2014-Aug-20 17:23N 44°36' E 033°02'1112.9
2014-Aug-20 16:33N 44°44' E 032°52'13510.9
2014-Aug-20 04:14N 46°34' E 031°00'3 0.4
2014-Aug-19 21:03N 46°37' E 031°02'0 0.0
2014-Aug-18 23:24N 46°37' E 031°02'0 0.0
2014-Aug-18 22:24N 46°37' E 031°02'  
2014-Aug-15 05:31N 46°39' E 031°01'0 0.0
2014-Aug-15 04:31N 46°39' E 031°01'0 0.0
2014-Aug-15 03:31N 46°39' E 031°01'0 0.0
2014-Aug-15 02:10N 46°39' E 031°01'0 0.0
2014-Aug-15 01:31N 46°39' E 031°01'0 0.0
2014-Aug-15 00:31N 46°39' E 031°01'0 0.0
2014-Aug-14 23:31N 46°39' E 031°01'1 1.0
2014-Aug-14 22:34N 46°38' E 031°01'4 4.3
2014-Aug-14 21:34N 46°34' E 031°03'2 2.2
2014-Aug-14 20:30N 46°34' E 031°06'0 0.0
2014-Aug-14 19:33N 46°34' E 031°06'0 0.0
2014-Aug-14 18:33N 46°34' E 031°06'0 0.0
2014-Aug-13 17:33N 46°34' E 031°06'0 0.0
2014-Aug-13 16:33N 46°34' E 031°06'0 0.0
2014-Aug-13 15:33N 46°34' E 031°06'0 0.0
2014-Aug-13 13:30N 46°34' E 031°06'0 0.0
2014-Aug-13 05:15N 46°34' E 031°06'0 0.0
2014-Aug-13 04:33N 46°34' E 031°06'0 0.0
2014-Aug-13 03:33N 46°34' E 031°06'0 0.0
2014-Aug-13 02:33N 46°34' E 031°06'0 0.0
2014-Aug-13 01:33N 46°34' E 031°06'0 0.0
2014-Aug-13 00:33N 46°34' E 031°06'0 0.0
2014-Aug-12 23:33N 46°34' E 031°06'0 0.0
2014-Aug-12 22:33N 46°34' E 031°06'0 0.0
2014-Aug-12 21:33N 46°34' E 031°06'0 0.0
2014-Aug-12 20:33N 46°34' E 031°06'0 0.0
2014-Aug-12 19:33N 46°34' E 031°06'0 0.0
2014-Aug-12 18:33N 46°34' E 031°06'0 0.0
2014-Aug-12 17:33N 46°34' E 031°06'0 0.0
2014-Aug-12 16:33N 46°34' E 031°06'0 0.0
2014-Aug-12 15:30N 46°34' E 031°06'0 0.0
2014-Aug-12 05:24N 46°34' E 031°06'0 0.0
2014-Aug-12 04:33N 46°34' E 031°06'0 0.0
2014-Aug-12 02:06N 46°34' E 031°06'0 0.0
2014-Aug-12 01:30N 46°34' E 031°06'0 0.1
2014-Aug-11 21:31N 46°34' E 031°06'5 5.3
2014-Aug-11 20:33N 46°33' E 030°59'8 7.8
2014-Aug-11 19:33N 46°25' E 030°57'  

Dump ship's entire track history